Time;durP1;ratioP1;P1;durP2;ratioP2;P2;SDS_P1;SDS_P2;PMS_P1;PMS_P2;Temp;Humidity;BMP_temperature;BMP_pressure;BME280_temperature;BME280_humidity;BME280_pressure;Samples;Min_cycle;Max_cycle;Signal;HPM_P1;HPM_P2
2022/07/31 00:01:23;;;;;;;;;2.33;1.00;;;;;;;;5100303;27;45530;-76
2022/07/31 00:03:49;;;;;;;;;2.33;2.33;;;;;;;;5099907;27;45599;-77
2022/07/31 00:06:14;;;;;;;;;3.33;2.00;;;;;;;;5099942;27;45376;-76
2022/07/31 00:08:39;;;;;;;;;3.00;3.00;;;;;;;;5100263;27;45418;-75
2022/07/31 00:11:04;;;;;;;;;2.67;2.67;;;;;;;;5100149;27;45433;-75
2022/07/31 00:13:30;;;;;;;;;2.67;2.67;;;;;;;;5098512;27;47214;-77
2022/07/31 00:15:55;;;;;;;;;3.00;3.00;;;;;;;;5099903;27;45510;-76
2022/07/31 00:18:20;;;;;;;;;4.00;4.00;;;;;;;;5100204;27;45362;-75
2022/07/31 00:20:46;;;;;;;;;2.00;2.00;;;;;;;;5100242;27;45265;-76
2022/07/31 00:23:11;;;;;;;;;2.67;2.00;;;;;;;;5099678;27;46363;-75
2022/07/31 00:25:37;;;;;;;;;3.00;1.00;;;;;;;;5099608;27;45374;-76
2022/07/31 00:28:02;;;;;;;;;1.00;1.00;;;;;;;;5099999;27;45281;-76
2022/07/31 00:30:28;;;;;;;;;1.00;1.00;;;;;;;;5100186;27;45502;-76
2022/07/31 00:32:53;;;;;;;;;2.00;2.00;;;;;;;;5099510;27;45592;-75
2022/07/31 00:35:19;;;;;;;;;1.33;1.00;;;;;;;;5099761;27;45359;-74
2022/07/31 00:37:44;;;;;;;;;1.67;1.67;;;;;;;;5099808;27;45380;-75
2022/07/31 00:40:10;;;;;;;;;1.00;1.00;;;;;;;;5099786;27;45565;-75
2022/07/31 00:42:36;;;;;;;;;1.00;1.00;;;;;;;;5099358;27;47250;-74
2022/07/31 00:45:01;;;;;;;;;1.00;1.00;;;;;;;;5098221;27;45389;-74
2022/07/31 00:47:26;;;;;;;;;1.67;1.67;;;;;;;;5099524;27;45377;-76
2022/07/31 00:49:52;;;;;;;;;2.00;2.00;;;;;;;;5099911;27;45275;-74
2022/07/31 00:52:17;;;;;;;;;1.00;1.00;;;;;;;;5099192;27;47462;-75
2022/07/31 00:54:42;;;;;;;;;2.00;1.00;;;;;;;;5099143;27;45428;-74
2022/07/31 00:57:08;;;;;;;;;3.67;1.33;;;;;;;;5099560;27;45268;-76
2022/07/31 00:59:33;;;;;;;;;3.33;1.00;;;;;;;;5099730;27;45306;-76
2022/07/31 01:01:58;;;;;;;;;1.00;1.00;;;;;;;;5099153;27;45987;-74
2022/07/31 01:04:25;;;;;;;;;3.00;1.00;;;;;;;;5098993;27;45893;-74
2022/07/31 01:06:50;;;;;;;;;1.00;1.00;;;;;;;;5099122;27;45350;-74
2022/07/31 01:09:18;;;;;;;;;2.00;2.00;;;;;;;;5099313;27;45309;-75
2022/07/31 01:11:47;;;;;;;;;1.00;1.00;;;;;;;;5099114;27;45292;-74
2022/07/31 01:14:14;;;;;;;;;2.00;2.00;;;;;;;;5098810;27;45335;-74
2022/07/31 01:16:41;;;;;;;;;1.00;1.00;;;;;;;;5099109;27;45335;-75
2022/07/31 01:19:25;;;;;;;;;1.67;0.33;;;;;;;;5099336;27;45255;-75
2022/07/31 01:21:59;;;;;;;;;4.67;1.00;;;;;;;;5098834;27;45503;-75
2022/07/31 01:24:28;;;;;;;;;2.00;2.00;;;;;;;;5098794;27;45472;-75
2022/07/31 01:26:57;;;;;;;;;1.33;1.33;;;;;;;;5098969;27;46266;-74
2022/07/31 01:29:27;;;;;;;;;1.00;1.00;;;;;;;;5099034;27;45350;-75
2022/07/31 01:32:01;;;;;;;;;2.33;1.67;;;;;;;;5098540;27;47537;-74
2022/07/31 01:34:27;;;;;;;;;2.00;2.00;;;;;;;;5098802;27;45387;-75
2022/07/31 01:36:56;;;;;;;;;2.00;2.00;;;;;;;;5098803;27;45324;-74
2022/07/31 01:39:21;;;;;;;;;1.00;1.00;;;;;;;;5099093;27;45268;-74
2022/07/31 01:41:48;;;;;;;;;1.00;1.00;;;;;;;;5098535;27;47317;-76
2022/07/31 01:44:14;;;;;;;;;2.00;2.00;;;;;;;;5098648;27;45319;-75
2022/07/31 01:46:40;;;;;;;;;2.00;2.00;;;;;;;;5098603;27;45567;-75
2022/07/31 01:49:06;;;;;;;;;2.00;2.00;;;;;;;;5098748;27;45377;-74
2022/07/31 01:51:32;;;;;;;;;1.33;1.33;;;;;;;;5098487;27;45669;-74
2022/07/31 01:53:59;;;;;;;;;2.00;2.00;;;;;;;;5098415;27;45343;-74
2022/07/31 01:56:25;;;;;;;;;2.33;2.33;;;;;;;;5098043;27;45166;-75
2022/07/31 01:58:51;;;;;;;;;43.33;38.00;;;;;;;;5098494;27;45557;-74
2022/07/31 02:01:17;;;;;;;;;4.67;3.00;;;;;;;;5098290;27;45493;-75
2022/07/31 02:03:43;;;;;;;;;2.00;2.00;;;;;;;;5097827;27;45445;-75
2022/07/31 02:06:10;;;;;;;;;2.33;2.33;;;;;;;;5098262;27;45411;-74
2022/07/31 02:08:37;;;;;;;;;3.00;3.00;;;;;;;;5098492;27;45220;-74
2022/07/31 02:11:02;;;;;;;;;2.67;2.67;;;;;;;;5097934;27;46627;-75
2022/07/31 02:13:28;;;;;;;;;1.67;1.67;;;;;;;;5098163;27;45146;-74
2022/07/31 02:15:55;;;;;;;;;2.67;2.67;;;;;;;;5098455;27;45241;-74
2022/07/31 02:18:21;;;;;;;;;4.67;3.67;;;;;;;;5098326;27;45468;-75
2022/07/31 02:20:49;;;;;;;;;7.00;4.00;;;;;;;;5098195;27;45444;-73
2022/07/31 02:23:14;;;;;;;;;3.00;2.00;;;;;;;;5098120;27;45453;-74
2022/07/31 02:25:40;;;;;;;;;3.00;3.00;;;;;;;;5098002;27;45416;-75
2022/07/31 02:28:10;;;;;;;;;3.00;3.00;;;;;;;;5098281;27;45390;-77
2022/07/31 02:30:37;;;;;;;;;3.33;3.00;;;;;;;;5097797;27;46292;-75
2022/07/31 02:33:03;;;;;;;;;5.00;3.67;;;;;;;;5097888;27;45482;-75
2022/07/31 02:35:29;;;;;;;;;2.67;2.67;;;;;;;;5097904;27;45379;-75
2022/07/31 02:37:55;;;;;;;;;4.00;2.67;;;;;;;;5098154;27;45379;-74
2022/07/31 02:40:23;;;;;;;;;5.00;3.67;;;;;;;;5097553;27;46379;-78
2022/07/31 02:42:48;;;;;;;;;5.00;4.67;;;;;;;;5097594;27;45418;-75
2022/07/31 02:45:14;;;;;;;;;4.67;4.33;;;;;;;;5097870;27;45300;-76
2022/07/31 02:47:40;;;;;;;;;6.00;4.00;;;;;;;;5098180;27;45291;-74
2022/07/31 02:50:05;;;;;;;;;4.00;4.00;;;;;;;;5097530;27;45750;-75
2022/07/31 02:52:32;;;;;;;;;3.00;3.00;;;;;;;;5097829;27;45433;-74
2022/07/31 02:54:58;;;;;;;;;6.00;5.00;;;;;;;;5097711;27;45416;-75
2022/07/31 02:57:23;;;;;;;;;4.33;2.67;;;;;;;;5097810;27;45445;-74
2022/07/31 02:59:48;;;;;;;;;5.67;4.00;;;;;;;;5097438;27;46197;-75
2022/07/31 03:02:13;;;;;;;;;4.33;4.33;;;;;;;;5097688;27;45330;-75
2022/07/31 03:04:39;;;;;;;;;5.33;4.33;;;;;;;;5097534;27;45382;-74
2022/07/31 03:07:04;;;;;;;;;3.00;3.00;;;;;;;;5097732;27;45375;-75
2022/07/31 03:09:29;;;;;;;;;4.33;4.33;;;;;;;;5100644;27;45571;-74
2022/07/31 03:11:55;;;;;;;;;4.00;4.00;;;;;;;;5100781;27;45371;-76
2022/07/31 03:14:21;;;;;;;;;4.00;4.00;;;;;;;;5101191;27;45332;-74
2022/07/31 03:16:48;;;;;;;;;4.00;4.00;;;;;;;;5101163;27;45587;-75
2022/07/31 03:19:13;;;;;;;;;7.67;5.00;;;;;;;;5100632;27;47041;-75
2022/07/31 03:21:39;;;;;;;;;4.00;4.00;;;;;;;;5100677;27;45325;-75
2022/07/31 03:24:05;;;;;;;;;4.67;4.67;;;;;;;;5100857;27;45353;-75
2022/07/31 03:26:30;;;;;;;;;8.00;6.00;;;;;;;;5100966;27;45496;-76
2022/07/31 03:28:55;;;;;;;;;4.67;4.33;;;;;;;;5100571;27;46454;-74
2022/07/31 03:31:21;;;;;;;;;4.00;4.00;;;;;;;;5100638;27;45424;-74
2022/07/31 03:33:46;;;;;;;;;5.33;3.67;;;;;;;;5100849;27;45406;-74
2022/07/31 03:36:11;;;;;;;;;6.00;5.00;;;;;;;;5100995;27;45508;-75
2022/07/31 03:38:37;;;;;;;;;8.67;7.67;;;;;;;;5100652;27;45453;-76
2022/07/31 03:41:02;;;;;;;;;7.00;6.33;;;;;;;;5100569;27;45420;-74
2022/07/31 03:43:29;;;;;;;;;2.67;2.33;;;;;;;;5100558;27;45311;-75
2022/07/31 03:45:57;;;;;;;;;5.33;5.33;;;;;;;;5100625;27;45483;-75
2022/07/31 03:48:22;;;;;;;;;6.00;4.00;;;;;;;;5100465;27;45252;-75
2022/07/31 03:50:48;;;;;;;;;6.00;4.33;;;;;;;;5100354;27;45548;-75
2022/07/31 03:53:13;;;;;;;;;9.67;6.00;;;;;;;;5100553;27;45611;-76
2022/07/31 03:55:39;;;;;;;;;5.00;5.00;;;;;;;;5100525;27;45411;-75
2022/07/31 03:58:05;;;;;;;;;8.00;6.00;;;;;;;;5100158;27;46449;-75
2022/07/31 04:00:31;;;;;;;;;6.00;5.00;;;;;;;;5100339;27;45290;-75
2022/07/31 04:02:56;;;;;;;;;10.67;7.00;;;;;;;;5100319;27;45500;-75
2022/07/31 04:05:22;;;;;;;;;9.00;4.00;;;;;;;;5100101;27;45339;-75
2022/07/31 04:07:47;;;;;;;;;7.00;6.00;;;;;;;;5099891;27;46233;-75
2022/07/31 04:10:13;;;;;;;;;6.00;5.33;;;;;;;;5099991;27;45228;-75
2022/07/31 04:12:38;;;;;;;;;7.00;6.00;;;;;;;;5100116;27;45329;-74
2022/07/31 04:15:04;;;;;;;;;11.33;6.33;;;;;;;;5100201;27;45552;-77
2022/07/31 04:17:29;;;;;;;;;6.00;6.00;;;;;;;;5099794;27;47030;-73
2022/07/31 04:19:54;;;;;;;;;7.67;5.33;;;;;;;;5099763;27;45434;-74
2022/07/31 04:22:19;;;;;;;;;7.67;4.67;;;;;;;;5100135;27;45315;-74
2022/07/31 04:24:44;;;;;;;;;7.33;7.00;;;;;;;;5100227;27;45326;-75
2022/07/31 04:27:10;;;;;;;;;8.00;5.00;;;;;;;;5099597;27;45736;-74
2022/07/31 04:29:35;;;;;;;;;7.00;7.00;;;;;;;;5099868;27;45377;-76
2022/07/31 04:32:00;;;;;;;;;10.33;6.00;;;;;;;;5099895;27;45386;-75
2022/07/31 04:34:25;;;;;;;;;6.67;5.67;;;;;;;;5100097;27;45327;-74
2022/07/31 04:36:51;;;;;;;;;7.67;5.00;;;;;;;;5099522;27;47265;-75
2022/07/31 04:39:16;;;;;;;;;6.00;4.33;;;;;;;;5099595;27;45461;-75
2022/07/31 04:41:41;;;;;;;;;7.00;6.00;;;;;;;;5099602;27;45254;-75
2022/07/31 04:44:07;;;;;;;;;7.00;5.33;;;;;;;;5099897;27;45347;-75
2022/07/31 04:46:32;;;;;;;;;6.33;5.67;;;;;;;;5099253;27;45533;-75
2022/07/31 04:48:57;;;;;;;;;7.00;6.33;;;;;;;;5099595;27;45488;-73
2022/07/31 04:51:22;;;;;;;;;65.25;52.50;;;;;;;;5099430;27;45233;-75
2022/07/31 04:53:49;;;;;;;;;12.67;12.00;;;;;;;;5099509;27;45485;-74
2022/07/31 04:59:00;;;;;;;;;9.00;5.33;;;;;;;;5099294;27;45403;-75
2022/07/31 05:01:25;;;;;;;;;5.67;5.67;;;;;;;;5099510;27;45232;-74
2022/07/31 05:03:50;;;;;;;;;6.00;5.33;;;;;;;;5099099;27;45494;-75
2022/07/31 05:06:16;;;;;;;;;4.00;4.00;;;;;;;;5098974;27;45511;-74
2022/07/31 05:08:41;;;;;;;;;12.00;7.00;;;;;;;;5099296;27;45228;-75
2022/07/31 05:11:21;;;;;;;;;9.33;7.00;;;;;;;;5099032;27;45142;-75
2022/07/31 05:13:49;;;;;;;;;7.67;6.00;;;;;;;;5099410;27;45342;-74
2022/07/31 05:16:14;;;;;;;;;7.33;7.00;;;;;;;;5098724;27;46208;-74
2022/07/31 05:18:39;;;;;;;;;5.67;5.00;;;;;;;;5098854;27;45343;-75
2022/07/31 05:21:04;;;;;;;;;6.67;6.67;;;;;;;;5098940;27;45334;-75
2022/07/31 05:23:30;;;;;;;;;6.00;4.00;;;;;;;;5099448;27;45138;-74
2022/07/31 05:25:55;;;;;;;;;4.33;4.33;;;;;;;;5098624;27;45594;-76
2022/07/31 05:28:20;;;;;;;;;5.00;5.00;;;;;;;;5099074;27;45245;-75
2022/07/31 05:30:45;;;;;;;;;8.67;7.00;;;;;;;;5098054;27;45824;-74
2022/07/31 05:33:10;;;;;;;;;6.67;6.67;;;;;;;;5099167;27;45245;-74
2022/07/31 05:35:36;;;;;;;;;6.00;6.00;;;;;;;;5098647;27;46193;-75
2022/07/31 05:38:01;;;;;;;;;8.33;5.67;;;;;;;;5098748;27;45384;-75
2022/07/31 05:40:26;;;;;;;;;5.67;5.67;;;;;;;;5098922;27;45389;-75
2022/07/31 05:42:52;;;;;;;;;7.00;6.00;;;;;;;;5098683;27;45601;-75
2022/07/31 05:45:17;;;;;;;;;5.67;5.33;;;;;;;;5098550;27;45523;-74
2022/07/31 05:47:42;;;;;;;;;7.00;5.33;;;;;;;;5098613;27;45492;-75
2022/07/31 05:50:08;;;;;;;;;10.00;7.00;;;;;;;;5098779;27;45269;-75
2022/07/31 05:52:33;;;;;;;;;7.33;5.33;;;;;;;;5098778;27;45530;-75
2022/07/31 05:54:58;;;;;;;;;8.00;6.67;;;;;;;;5098422;27;45527;-77
2022/07/31 05:57:24;;;;;;;;;8.33;7.00;;;;;;;;5098343;27;45391;-75
2022/07/31 05:59:49;;;;;;;;;8.33;5.00;;;;;;;;5098581;27;45529;-76
2022/07/31 06:02:14;;;;;;;;;7.33;7.33;;;;;;;;5098734;27;45383;-75
2022/07/31 06:04:39;;;;;;;;;8.33;8.33;;;;;;;;5098166;27;45620;-76
2022/07/31 06:07:04;;;;;;;;;9.00;8.00;;;;;;;;5098076;27;45371;-75
2022/07/31 06:09:30;;;;;;;;;6.67;5.67;;;;;;;;5097074;27;45335;-75
2022/07/31 06:11:55;;;;;;;;;8.00;8.00;;;;;;;;5098330;27;45233;-75
2022/07/31 06:14:21;;;;;;;;;5.67;5.67;;;;;;;;5098209;27;45598;-74
2022/07/31 06:16:48;;;;;;;;;9.00;6.00;;;;;;;;5098337;27;45445;-75
2022/07/31 06:19:13;;;;;;;;;9.00;8.33;;;;;;;;5098246;27;45221;-76
2022/07/31 06:21:39;;;;;;;;;8.00;7.00;;;;;;;;5098515;27;45262;-75
2022/07/31 06:24:04;;;;;;;;;7.00;7.00;;;;;;;;5098059;27;46163;-75
2022/07/31 06:26:30;;;;;;;;;9.33;6.00;;;;;;;;5097785;27;45231;-76
2022/07/31 06:28:55;;;;;;;;;5.33;4.33;;;;;;;;5098342;27;45334;-75
2022/07/31 06:31:20;;;;;;;;;9.67;8.33;;;;;;;;5098248;27;45166;-75
2022/07/31 06:33:46;;;;;;;;;10.33;9.00;;;;;;;;5097930;27;45453;-76
2022/07/31 06:36:11;;;;;;;;;10.33;7.67;;;;;;;;5097787;27;45234;-75
2022/07/31 06:38:36;;;;;;;;;7.00;7.00;;;;;;;;5098043;27;45304;-77
2022/07/31 06:41:02;;;;;;;;;8.00;8.00;;;;;;;;5098108;27;45264;-75
2022/07/31 06:43:27;;;;;;;;;7.00;6.00;;;;;;;;5100973;27;46791;-75
2022/07/31 06:45:52;;;;;;;;;6.67;6.67;;;;;;;;5101633;27;45350;-75
2022/07/31 06:48:17;;;;;;;;;8.33;8.33;;;;;;;;5101601;27;45342;-75
2022/07/31 06:50:42;;;;;;;;;8.67;8.33;;;;;;;;5101461;27;45341;-74
2022/07/31 06:53:08;;;;;;;;;7.00;5.33;;;;;;;;5101381;27;45421;-76
2022/07/31 06:55:33;;;;;;;;;7.00;7.00;;;;;;;;5101270;27;45442;-76
2022/07/31 06:57:58;;;;;;;;;5.33;5.33;;;;;;;;5101425;27;45268;-75
2022/07/31 07:00:23;;;;;;;;;9.67;8.33;;;;;;;;5101468;27;45286;-76
2022/07/31 07:02:48;;;;;;;;;11.00;9.00;;;;;;;;5101165;27;45338;-73
2022/07/31 07:05:14;;;;;;;;;8.67;7.33;;;;;;;;5100937;27;45728;-75
2022/07/31 07:07:39;;;;;;;;;6.67;6.67;;;;;;;;5101104;27;45295;-75
2022/07/31 07:10:04;;;;;;;;;10.67;7.33;;;;;;;;5101403;27;45411;-75
2022/07/31 07:12:29;;;;;;;;;7.33;6.00;;;;;;;;5100901;27;45355;-75
2022/07/31 07:14:55;;;;;;;;;7.67;7.67;;;;;;;;5101095;27;45354;-75
2022/07/31 07:17:20;;;;;;;;;7.33;6.67;;;;;;;;5101103;27;45253;-76
2022/07/31 07:19:45;;;;;;;;;10.00;8.67;;;;;;;;5101092;27;45250;-76
2022/07/31 07:22:11;;;;;;;;;7.00;7.00;;;;;;;;5100633;27;46176;-77
2022/07/31 07:24:36;;;;;;;;;9.00;6.00;;;;;;;;5100943;27;45420;-76
2022/07/31 07:27:01;;;;;;;;;11.33;7.67;;;;;;;;5100838;27;45254;-75
2022/07/31 07:29:27;;;;;;;;;9.00;6.33;;;;;;;;5100965;27;45209;-75
2022/07/31 07:31:52;;;;;;;;;7.00;6.67;;;;;;;;5100791;27;45583;-77
2022/07/31 07:34:17;;;;;;;;;7.00;6.00;;;;;;;;5100738;27;45231;-76
2022/07/31 07:36:42;;;;;;;;;4.33;4.33;;;;;;;;5100785;27;45210;-77
2022/07/31 07:39:08;;;;;;;;;6.33;6.00;;;;;;;;5100970;27;45464;-76
2022/07/31 07:41:33;;;;;;;;;11.00;8.33;;;;;;;;5100360;27;45339;-76
2022/07/31 07:43:58;;;;;;;;;8.67;7.67;;;;;;;;5100530;27;45216;-76
2022/07/31 07:46:24;;;;;;;;;9.67;7.67;;;;;;;;5100470;27;45413;-75
2022/07/31 07:48:49;;;;;;;;;7.00;6.00;;;;;;;;5100720;27;45425;-75
2022/07/31 07:51:15;;;;;;;;;4.67;4.67;;;;;;;;5100475;27;45363;-76
2022/07/31 07:53:40;;;;;;;;;7.00;6.00;;;;;;;;5099635;27;45286;-77
2022/07/31 07:56:05;;;;;;;;;5.00;5.00;;;;;;;;5100494;27;45349;-76
2022/07/31 07:58:31;;;;;;;;;7.00;7.00;;;;;;;;5100369;27;45209;-76
2022/07/31 08:00:56;;;;;;;;;8.00;8.00;;;;;;;;5100215;27;45470;-76
2022/07/31 08:03:21;;;;;;;;;6.33;6.33;;;;;;;;5100193;27;45415;-76
2022/07/31 08:05:46;;;;;;;;;6.67;6.67;;;;;;;;5100036;27;45429;-75
2022/07/31 08:08:11;;;;;;;;;5.00;5.00;;;;;;;;5100410;27;45223;-75
2022/07/31 08:10:38;;;;;;;;;9.00;7.33;;;;;;;;5100077;27;45610;-75
2022/07/31 08:13:03;;;;;;;;;7.67;5.00;;;;;;;;5099718;27;45423;-75
2022/07/31 08:15:29;;;;;;;;;5.00;3.33;;;;;;;;5100039;27;45239;-75
2022/07/31 08:17:55;;;;;;;;;5.00;5.00;;;;;;;;5100178;27;45307;-77
2022/07/31 08:20:20;;;;;;;;;7.00;5.00;;;;;;;;5099860;27;45314;-76
2022/07/31 08:22:45;;;;;;;;;4.67;4.00;;;;;;;;5100036;27;45411;-75
2022/07/31 08:25:10;;;;;;;;;6.67;4.00;;;;;;;;5100002;27;45309;-76
2022/07/31 08:27:36;;;;;;;;;3.67;3.67;;;;;;;;5100134;27;45524;-76
2022/07/31 08:30:01;;;;;;;;;4.00;3.33;;;;;;;;5099696;27;46427;-77
2022/07/31 08:32:27;;;;;;;;;3.00;3.00;;;;;;;;5099837;27;45302;-76
2022/07/31 08:34:52;;;;;;;;;4.00;2.67;;;;;;;;5099908;27;45308;-76
2022/07/31 08:37:20;;;;;;;;;3.00;3.00;;;;;;;;5099984;27;45383;-75
2022/07/31 08:39:46;;;;;;;;;3.00;3.00;;;;;;;;5099815;27;45441;-76
2022/07/31 08:42:12;;;;;;;;;5.00;5.00;;;;;;;;5099468;27;45497;-76
2022/07/31 08:44:38;;;;;;;;;4.33;3.00;;;;;;;;5099557;27;45435;-76
2022/07/31 08:47:08;;;;;;;;;3.00;3.00;;;;;;;;5099791;27;45393;-76
2022/07/31 08:49:36;;;;;;;;;4.33;4.33;;;;;;;;5099308;27;45386;-76
2022/07/31 08:52:01;;;;;;;;;3.00;2.33;;;;;;;;5099419;27;45354;-76
2022/07/31 08:54:28;;;;;;;;;3.00;3.00;;;;;;;;5099469;27;45288;-76
2022/07/31 08:56:53;;;;;;;;;3.67;2.00;;;;;;;;5099506;27;45464;-75
2022/07/31 08:59:19;;;;;;;;;3.00;2.67;;;;;;;;5099112;27;45578;-78
2022/07/31 09:01:44;;;;;;;;;3.00;3.00;;;;;;;;5099101;27;45273;-76
2022/07/31 09:04:10;;;;;;;;;3.00;3.00;;;;;;;;5099229;27;45232;-73
2022/07/31 09:06:35;;;;;;;;;4.00;2.00;;;;;;;;5098275;27;45392;-76
2022/07/31 09:09:01;;;;;;;;;4.67;3.00;;;;;;;;5099056;27;45381;-76
2022/07/31 09:11:26;;;;;;;;;3.00;3.00;;;;;;;;5099236;27;45358;-76
2022/07/31 09:13:55;;;;;;;;;2.00;1.00;;;;;;;;5099154;27;45319;-77
2022/07/31 09:16:20;;;;;;;;;1.33;1.33;;;;;;;;5099437;27;45230;-75
2022/07/31 09:18:56;;;;;;;;;1.00;1.00;;;;;;;;5098788;27;45687;-74
2022/07/31 09:21:21;;;;;;;;;2.33;2.00;;;;;;;;5099045;27;45288;-76
2022/07/31 09:23:47;;;;;;;;;0.00;0.00;;;;;;;;5099304;27;45274;-76
2022/07/31 09:26:12;;;;;;;;;1.00;1.00;;;;;;;;5099169;27;45606;-77
2022/07/31 09:28:39;;;;;;;;;0.00;0.00;;;;;;;;5098839;27;45514;-76
2022/07/31 09:31:06;;;;;;;;;0.00;0.00;;;;;;;;5098802;27;45413;-75
2022/07/31 09:33:31;;;;;;;;;1.33;1.00;;;;;;;;5098886;27;45296;-76
2022/07/31 09:35:58;;;;;;;;;0.33;0.33;;;;;;;;5099318;27;45280;-76
2022/07/31 09:38:31;;;;;;;;;0.00;0.00;;;;;;;;5098605;27;47151;-75
2022/07/31 09:40:57;;;;;;;;;2.00;1.00;;;;;;;;5098657;27;45467;-76
2022/07/31 09:43:27;;;;;;;;;0.00;0.00;;;;;;;;5098756;27;45514;-76
2022/07/31 09:45:59;;;;;;;;;1.00;1.00;;;;;;;;5099013;27;45260;-74
2022/07/31 09:48:24;;;;;;;;;0.33;0.33;;;;;;;;5098481;27;45446;-74
2022/07/31 09:50:54;;;;;;;;;0.00;0.00;;;;;;;;5098719;27;45311;-75
2022/07/31 09:53:19;;;;;;;;;2.00;2.00;;;;;;;;5098638;27;45401;-76
2022/07/31 09:55:48;;;;;;;;;1.67;1.00;;;;;;;;5098762;27;45360;-76
2022/07/31 09:58:14;;;;;;;;;6.00;6.00;;;;;;;;5098266;27;45454;-75
2022/07/31 10:00:39;;;;;;;;;1.00;1.00;;;;;;;;5098358;27;45227;-78
2022/07/31 10:03:04;;;;;;;;;2.67;1.00;;;;;;;;5098535;27;45395;-76
2022/07/31 10:05:30;;;;;;;;;0.00;0.00;;;;;;;;5098271;27;45318;-75
2022/07/31 10:07:56;;;;;;;;;3.33;3.33;;;;;;;;5098145;27;47360;-75
2022/07/31 10:10:22;;;;;;;;;1.00;1.00;;;;;;;;5098420;27;45471;-75
2022/07/31 10:12:49;;;;;;;;;1.33;0.00;;;;;;;;5098257;27;45467;-76
2022/07/31 10:15:15;;;;;;;;;0.00;0.00;;;;;;;;5098386;27;45381;-74
2022/07/31 10:17:43;;;;;;;;;1.67;1.00;;;;;;;;5097803;27;46349;-76
2022/07/31 10:20:12;;;;;;;;;0.00;0.00;;;;;;;;5098098;27;45307;-75
2022/07/31 10:23:00;;;;;;;;;0.00;0.00;;;;;;;;5098494;27;45404;-76
2022/07/31 10:25:29;;;;;;;;;4.33;1.00;;;;;;;;5098171;27;45387;-75
2022/07/31 10:27:58;;;;;;;;;2.00;2.00;;;;;;;;5097961;27;47365;-76
2022/07/31 10:30:23;;;;;;;;;1.00;1.00;;;;;;;;5097877;27;45461;-75
2022/07/31 10:32:49;;;;;;;;;1.00;1.00;;;;;;;;5098261;27;45288;-75
2022/07/31 10:35:14;;;;;;;;;0.67;0.67;;;;;;;;5098089;27;45522;-76
2022/07/31 10:37:55;;;;;;;;;1.00;1.00;;;;;;;;5097827;27;45329;-75
2022/07/31 10:40:20;;;;;;;;;2.67;1.67;;;;;;;;5098102;27;45290;-74
2022/07/31 10:42:54;;;;;;;;;1.00;1.00;;;;;;;;5097893;27;45510;-76
2022/07/31 10:45:21;;;;;;;;;1.67;1.00;;;;;;;;5098101;27;45177;-75
2022/07/31 10:47:54;;;;;;;;;0.33;0.33;;;;;;;;5097798;27;45961;-76
2022/07/31 10:50:20;;;;;;;;;1.00;1.00;;;;;;;;5097739;27;45251;-74
2022/07/31 10:52:45;;;;;;;;;0.00;0.00;;;;;;;;5097761;27;45238;-76
2022/07/31 10:55:18;;;;;;;;;1.67;1.00;;;;;;;;5097583;27;45580;-76
2022/07/31 10:57:43;;;;;;;;;1.67;1.00;;;;;;;;5097526;27;45332;-76
2022/07/31 11:00:10;;;;;;;;;1.00;1.00;;;;;;;;5097569;27;45217;-76
2022/07/31 11:02:36;;;;;;;;;0.67;0.67;;;;;;;;5097721;27;45341;-76
2022/07/31 11:05:22;;;;;;;;;0.67;0.67;;;;;;;;5097523;27;45423;-77
2022/07/31 11:07:58;;;;;;;;;2.00;1.00;;;;;;;;5097467;27;47528;-76
2022/07/31 11:10:23;;;;;;;;;3.00;1.00;;;;;;;;5097406;27;45374;-77
2022/07/31 11:13:06;;;;;;;;;1.00;1.00;;;;;;;;5097619;27;45391;-76
2022/07/31 11:15:32;;;;;;;;;1.67;1.00;;;;;;;;5097732;27;45454;-75
2022/07/31 11:17:57;;;;;;;;;3.00;1.00;;;;;;;;5096010;27;46073;-76
2022/07/31 11:20:24;;;;;;;;;1.00;1.00;;;;;;;;5097484;27;45284;-75
2022/07/31 11:22:58;;;;;;;;;1.67;1.00;;;;;;;;5097425;27;45464;-76
2022/07/31 11:25:24;;;;;;;;;1.00;1.00;;;;;;;;5097571;27;45418;-76
2022/07/31 11:27:49;;;;;;;;;1.33;1.33;;;;;;;;5097273;27;45448;-76
2022/07/31 11:30:15;;;;;;;;;2.33;1.00;;;;;;;;5099940;27;45356;-76
2022/07/31 11:32:46;;;;;;;;;1.00;1.00;;;;;;;;5101096;27;45282;-76
2022/07/31 11:35:11;;;;;;;;;2.67;1.00;;;;;;;;5101148;27;45220;-76
2022/07/31 11:37:36;;;;;;;;;2.67;2.67;;;;;;;;5100513;27;45429;-76
2022/07/31 11:40:04;;;;;;;;;4.00;2.00;;;;;;;;5100694;27;45251;-75
2022/07/31 11:42:29;;;;;;;;;3.00;3.00;;;;;;;;5100517;27;45333;-76
2022/07/31 11:45:01;;;;;;;;;4.00;3.00;;;;;;;;5100595;27;45389;-76
2022/07/31 11:47:35;;;;;;;;;4.00;4.00;;;;;;;;5100439;27;45746;-75
2022/07/31 11:50:01;;;;;;;;;2.33;2.00;;;;;;;;5100281;27;45267;-77
2022/07/31 11:52:26;;;;;;;;;3.33;3.00;;;;;;;;5100614;27;45299;-77
2022/07/31 11:55:02;;;;;;;;;3.00;2.00;;;;;;;;5100634;27;45412;-76
2022/07/31 11:57:31;;;;;;;;;3.33;3.33;;;;;;;;5100351;27;46150;-75
2022/07/31 11:59:56;;;;;;;;;4.33;3.67;;;;;;;;5100129;27;45323;-77
2022/07/31 12:02:22;;;;;;;;;3.33;3.00;;;;;;;;5100651;27;45363;-75
2022/07/31 12:04:47;;;;;;;;;3.00;3.00;;;;;;;;5100469;27;45540;-74
2022/07/31 12:07:13;;;;;;;;;4.00;4.00;;;;;;;;5100060;27;45391;-76
2022/07/31 12:09:39;;;;;;;;;4.33;4.00;;;;;;;;5100245;27;45372;-76
2022/07/31 12:12:05;;;;;;;;;4.00;2.67;;;;;;;;5100163;27;45256;-75
2022/07/31 12:14:31;;;;;;;;;3.00;3.00;;;;;;;;5099057;27;45398;-74
2022/07/31 12:16:56;;;;;;;;;2.67;2.67;;;;;;;;5099850;27;46191;-75
2022/07/31 12:19:29;;;;;;;;;2.00;1.33;;;;;;;;5100041;27;45513;-75
2022/07/31 12:21:54;;;;;;;;;1.33;1.33;;;;;;;;5100161;27;45517;-76
2022/07/31 12:24:20;;;;;;;;;2.33;2.00;;;;;;;;5100199;27;45296;-76
2022/07/31 12:26:57;;;;;;;;;3.67;2.00;;;;;;;;5099602;27;45456;-76
2022/07/31 12:29:36;;;;;;;;;2.33;2.33;;;;;;;;5099793;27;45334;-77
2022/07/31 12:32:02;;;;;;;;;4.00;2.67;;;;;;;;5099904;27;45306;-76
2022/07/31 12:34:30;;;;;;;;;1.67;1.67;;;;;;;;5099778;27;45454;-77
2022/07/31 12:36:58;;;;;;;;;5.33;2.33;;;;;;;;5099692;27;46442;-75
2022/07/31 12:39:23;;;;;;;;;3.00;2.00;;;;;;;;5099532;27;45316;-76
2022/07/31 12:41:48;;;;;;;;;5.33;2.67;;;;;;;;5099688;27;45413;-75
2022/07/31 12:44:14;;;;;;;;;3.00;2.00;;;;;;;;5099757;27;45337;-76
2022/07/31 12:46:39;;;;;;;;;2.00;2.00;;;;;;;;5099386;27;47091;-76
2022/07/31 12:49:05;;;;;;;;;2.33;1.00;;;;;;;;5099578;27;45355;-77
2022/07/31 12:51:31;;;;;;;;;2.00;2.00;;;;;;;;5099645;27;45299;-75
2022/07/31 12:53:56;;;;;;;;;1.00;1.00;;;;;;;;5099339;27;45541;-76
2022/07/31 12:56:22;;;;;;;;;1.00;1.00;;;;;;;;5099405;27;46131;-76
2022/07/31 12:58:47;;;;;;;;;1.67;1.67;;;;;;;;5099108;27;45433;-77
2022/07/31 13:01:12;;;;;;;;;2.67;1.00;;;;;;;;5099618;27;45418;-76
2022/07/31 13:03:37;;;;;;;;;1.67;1.00;;;;;;;;5099305;27;45497;-76
2022/07/31 13:06:03;;;;;;;;;1.00;1.00;;;;;;;;5099116;27;47143;-76
2022/07/31 13:08:28;;;;;;;;;1.33;1.00;;;;;;;;5099304;27;45343;-74
2022/07/31 13:10:53;;;;;;;;;5.00;5.00;;;;;;;;5099373;27;45616;-76
2022/07/31 13:13:19;;;;;;;;;1.50;1.50;;;;;;;;5099508;27;45425;-75
2022/07/31 13:15:44;;;;;;;;;4.33;4.33;;;;;;;;5098969;27;46286;-76
2022/07/31 13:18:10;;;;;;;;;3.00;3.00;;;;;;;;5098985;27;45489;-75
2022/07/31 13:20:35;;;;;;;;;13.67;10.33;;;;;;;;5099174;27;45234;-75
2022/07/31 13:23:01;;;;;;;;;1.00;1.00;;;;;;;;5099220;27;45502;-74
2022/07/31 13:25:29;;;;;;;;;4.33;2.00;;;;;;;;5098870;27;45263;-75
2022/07/31 13:27:54;;;;;;;;;16.67;13.67;;;;;;;;5098742;27;45413;-75
2022/07/31 13:30:19;;;;;;;;;1.33;1.33;;;;;;;;5098831;27;45381;-75
2022/07/31 13:32:44;;;;;;;;;1.33;0.00;;;;;;;;5099159;27;45248;-76
2022/07/31 13:35:11;;;;;;;;;0.00;0.00;;;;;;;;5098758;27;45470;-77
2022/07/31 13:37:36;;;;;;;;;1.00;1.00;;;;;;;;5098743;27;45380;-75
2022/07/31 13:40:01;;;;;;;;;1.67;1.00;;;;;;;;5098943;27;45379;-75
2022/07/31 13:42:26;;;;;;;;;2.00;2.00;;;;;;;;5098947;27;45394;-75
2022/07/31 13:44:52;;;;;;;;;1.00;1.00;;;;;;;;5098426;27;46466;-75
2022/07/31 13:47:17;;;;;;;;;0.00;0.00;;;;;;;;5098679;27;45314;-77
2022/07/31 13:49:42;;;;;;;;;0.00;0.00;;;;;;;;5098852;27;45382;-76
2022/07/31 13:52:07;;;;;;;;;1.00;1.00;;;;;;;;5098282;27;45264;-75
2022/07/31 13:54:32;;;;;;;;;1.00;1.00;;;;;;;;5098326;27;45622;-75
2022/07/31 13:56:58;;;;;;;;;0.67;0.67;;;;;;;;5098486;27;45301;-76
2022/07/31 13:59:23;;;;;;;;;0.00;0.00;;;;;;;;5098625;27;45367;-78
2022/07/31 14:01:50;;;;;;;;;1.00;1.00;;;;;;;;5098604;27;45380;-76
2022/07/31 14:04:19;;;;;;;;;1.00;1.00;;;;;;;;5097987;27;46364;-75
2022/07/31 14:06:45;;;;;;;;;1.00;1.00;;;;;;;;5097992;27;45324;-75
2022/07/31 14:09:10;;;;;;;;;2.00;1.00;;;;;;;;5098461;27;45255;-75
2022/07/31 14:11:35;;;;;;;;;4.67;4.67;;;;;;;;5098468;27;45369;-74
2022/07/31 14:14:01;;;;;;;;;2.33;1.00;;;;;;;;5098216;27;46618;-75
2022/07/31 14:16:26;;;;;;;;;2.00;0.00;;;;;;;;5098300;27;45340;-75
2022/07/31 14:18:51;;;;;;;;;0.00;0.00;;;;;;;;5098329;27;45320;-75
2022/07/31 14:21:16;;;;;;;;;2.00;0.00;;;;;;;;5097223;27;45249;-75
2022/07/31 14:23:41;;;;;;;;;0.00;0.00;;;;;;;;5098158;27;45352;-75
2022/07/31 14:26:07;;;;;;;;;2.00;1.00;;;;;;;;5098111;27;45419;-74
2022/07/31 14:28:32;;;;;;;;;0.00;0.00;;;;;;;;5098227;27;45639;-76
2022/07/31 14:30:57;;;;;;;;;0.67;0.67;;;;;;;;5096818;27;45493;-74
2022/07/31 14:33:23;;;;;;;;;1.33;1.33;;;;;;;;5097933;27;46415;-76
2022/07/31 14:35:48;;;;;;;;;2.00;1.00;;;;;;;;5097974;27;45444;-76
2022/07/31 14:38:13;;;;;;;;;1.67;1.00;;;;;;;;5098243;27;45457;-76
2022/07/31 14:40:39;;;;;;;;;0.00;0.00;;;;;;;;5098374;27;45275;-76